Flight Track Log - Related Links

Times and Time Zones

All times are in EST time to prevent confusion due to time zone crossing. See the N3191U flight status page for this flight to view local times or setup timezone preferences in your user account.

Time Position Orientation Groundspeed Altitude Reporting Facility
EST Latitude Longitude Course Direction KTS MPH feet Rate Location/Type
Sun 09:42:15 AM 29.5225 -95.2931 265° West 93 107 1,500  Level Houston Center
Sun 09:43:28 AM 29.5197 -95.3319 265° West 107 123 1,900 236 Climbing Houston Center
Sun 09:44:22 AM 29.5267 -95.3639 284° West 111 128 2,000 197 Climbing Houston Center
Sun 09:44:29 AM 29.5272 -95.3694 277° West 115 132 2,100 581 Climbing Houston Center
Sun 09:45:24 AM 29.5461 -95.3911 315° West 120 138 2,600 569 Climbing Houston Center
Sun 09:46:25 AM 29.5744 -95.4125 327° Northwest 117 135 3,200 541 Climbing Houston Center
Sun 09:47:26 AM 29.6011 -95.4322 327° Northwest 115 132 3,700 448 Climbing Houston Center
Sun 09:47:32 AM 29.6047 -95.4347 329° Northwest 125 144 3,700  Level Houston Center
Sun 09:48:26 AM 29.6358 -95.4550 330° Northwest 134 154 3,700  Level Houston Center
Sun 09:48:27 AM 29.6344 -95.4514 114° Southeast 132 152 3,700  Level Houston Center
Sun 09:49:21 AM 29.6667 -95.4706 333° Northwest 132 152 3,700  Level Houston Center
Sun 09:49:28 AM 29.6678 -95.4703 12° North 134 154 3,700 -197 Level Houston Center
Sun 09:50:22 AM 29.6981 -95.4908 329° Northwest 131 151 3,500 -97 Descending Houston Center
Sun 09:50:30 AM 29.7006 -95.4894 26° Northeast 132 152 3,600 98 Climbing Houston Center
Sun 09:51:23 AM 29.7292 -95.5111 327° Northwest 128 147 3,600  Level Houston Center
Sun 09:51:31 AM 29.7308 -95.5108 North 129 148 3,600  Level Houston Center
Sun 09:52:24 AM 29.7586 -95.5342 324° Northwest 128 147 3,600  Level Houston Center
Sun 09:52:32 AM 29.7608 -95.5350 342° North 130 150 3,600  Level Houston Center
Sun 09:53:31 AM 29.7906 -95.5639 320° Northwest 129 148 3,600  Level Houston Center
Sun 09:53:33 AM 29.7889 -95.5597 115° Southeast 128 147 3,600  Level Houston Center
Sun 09:54:31 AM 29.8183 -95.5919 316° Northwest 126 145 3,600  Level Houston Center
Sun 09:54:35 AM 29.8156 -95.5864 120° Southeast 127 146 3,600  Level Houston Center
Sun 09:55:27 AM 29.8414 -95.6158 315° West 127 146 3,600  Level Houston Center
Sun 09:55:36 AM 29.8422 -95.6131 71° East 127 146 3,600  Level Houston Center
Sun 09:56:33 AM 29.8714 -95.6458 316° Northwest 126 145 3,600  Level Houston Center
Sun 09:56:37 AM 29.8742 -95.6453 10° North 128 147 3,600 98 Level Houston Center
Sun 09:57:34 AM 29.9011 -95.6714 320° Northwest 126 145 3,700 194 Climbing Houston Center
Sun 09:57:39 AM 29.9019 -95.6703 49° Northeast 128 147 3,800  Climbing Houston Center
Sun 09:58:35 AM 29.9303 -95.6944 324° Northwest 128 147 3,700 -98 Descending Houston Center
Sun 09:58:40 AM 29.9308 -95.6939 41° Northeast 128 147 3,700  Level Houston Center
Sun 09:59:41 AM 29.9606 -95.7172 326° Northwest 130 150 3,700  Level Houston Center
Sun 10:00:31 AM 29.9889 -95.7383 327° Northwest 131 151 3,700 -97 Level Houston Center
Sun 10:00:43 AM 29.9903 -95.7403 310° West 129 148 3,600 -90 Descending Houston Center
Sun 10:01:38 AM 30.0206 -95.7636 326° Northwest 132 152 3,600  Level Houston Center
Sun 10:01:44 AM 30.0219 -95.7631 19° North 132 152 3,600  Level Houston Center
Sun 10:02:38 AM 30.0519 -95.7864 326° Northwest 129 148 3,600  Level Houston Center
Sun 10:02:45 AM 30.0511 -95.7858 150° Southeast 129 148 3,600  Level Houston Center
Sun 10:03:39 AM 30.0817 -95.8142 321° Northwest 130 150 3,600  Level Houston Center
Sun 10:03:47 AM 30.0800 -95.8117 128° Southeast 131 151 3,600 -98 Level Houston Center
Sun 10:04:40 AM 30.1092 -95.8425 318° Northwest 129 148 3,500 -98 Descending Houston Center
Sun 10:04:48 AM 30.1064 -95.8394 136° Southeast 130 150 3,500  Level Houston Center
Sun 10:05:35 AM 30.1325 -95.8664 318° Northwest 129 148 3,500  Level Houston Center
Sun 10:05:49 AM 30.1392 -95.8719 324° Northwest 128 147 3,500 -90 Level Houston Center
Sun 10:06:42 AM 30.1644 -95.8964 320° Northwest 130 150 3,400  Descending Houston Center
Sun 10:06:51 AM 30.1667 -95.8983 323° Northwest 127 146 3,500  Climbing Houston Center
Sun 10:07:52 AM 30.1961 -95.9228 324° Northwest 130 150 3,400 -53 Descending Houston Center
Sun 10:08:44 AM 30.2256 -95.9475 324° Northwest 132 152 3,400  Level Houston Center
Sun 10:08:54 AM 30.2267 -95.9461 47° Northeast 131 151 3,400 -109 Level Houston Center
Sun 10:09:39 AM 30.2525 -95.9683 323° Northwest 133 153 3,300 -98 Descending Houston Center
Sun 10:09:55 AM 30.2578 -95.9700 345° North 134 154 3,300 90 Level Houston Center
Sun 10:10:46 AM 30.2842 -95.9939 322° Northwest 125 144 3,400 97 Climbing Houston Center
Sun 10:10:57 AM 30.2861 -95.9944 346° North 128 147 3,400  Level Houston Center
Sun 10:11:58 AM 30.3122 -96.0194 320° Northwest 123 142 3,400  Level Houston Center
Sun 10:12:42 AM 30.3325 -96.0439 314° West 121 139 3,400  Level Houston Center
Sun 10:13:00 AM 30.3400 -96.0503 324° Northwest 125 144 3,400  Level Houston Center
Sun 10:13:43 AM 30.3581 -96.0725 313° West 123 142 3,400  Level Houston Center
Sun 10:14:01 AM 30.3647 -96.0772 329° Northwest 123 142 3,400  Level Houston Center
Sun 10:14:56 AM 30.3900 -96.1028 319° Northwest 122 140 3,400  Level Houston Center
Sun 10:15:03 AM 30.3894 -96.1039 240° Southwest 122 140 3,400  Level Houston Center
Sun 10:15:57 AM 30.4172 -96.1286 322° Northwest 124 143 3,400 -98 Level Houston Center
Sun 10:16:04 AM 30.4192 -96.1267 41° Northeast 124 143 3,300 -122 Descending Houston Center
Sun 10:16:46 AM 30.4419 -96.1453 325° Northwest 124 143 3,300  Level Houston Center
Sun 10:17:06 AM 30.4486 -96.1492 333° Northwest 126 145 3,300  Level Houston Center
Sun 10:17:47 AM 30.4731 -96.1683 326° Northwest 127 146 3,300  Level Houston Center
Sun 10:18:08 AM 30.4789 -96.1719 332° Northwest 127 146 3,300  Level Houston Center
Sun 10:18:48 AM 30.5022 -96.1892 328° Northwest 126 145 3,300 98 Level Houston Center
Sun 10:19:09 AM 30.5122 -96.1986 321° Northwest 126 145 3,400 98 Climbing Houston Center
Sun 10:19:49 AM 30.5317 -96.2150 324° Northwest 125 144 3,400  Level Houston Center
Sun 10:20:11 AM 30.5406 -96.2225 324° Northwest 125 144 3,400 98 Level Houston Center
Sun 10:20:50 AM 30.5567 -96.2389 319° Northwest 124 143 3,500 97 Climbing Houston Center
Sun 10:21:13 AM 30.5675 -96.2489 322° Northwest 125 144 3,500  Level Houston Center
Sun 10:21:57 AM 30.5864 -96.2669 321° Northwest 121 139 3,500  Level Houston Center
Sun 10:22:15 AM 30.5939 -96.2733 324° Northwest 123 142 3,500 76 Level Houston Center
Sun 10:23:16 AM 30.6200 -96.2992 320° Northwest 122 140 3,600 58 Climbing Houston Center
Sun 10:23:59 AM 30.6408 -96.3167 324° Northwest 123 142 3,600  Level Houston Center
Sun 10:24:18 AM 30.6481 -96.3231 323° Northwest 124 143 3,600 98 Level Houston Center
Sun 10:25:00 AM 30.6681 -96.3403 323° Northwest 122 140 3,700 97 Climbing Houston Center
Sun 10:25:20 AM 30.6761 -96.3458 329° Northwest 123 142 3,700 -90 Level Houston Center
Sun 10:26:07 AM 30.6994 -96.3661 323° Northwest 122 140 3,600 -97 Descending Houston Center
Sun 10:26:22 AM 30.7053 -96.3692 336° Northwest 125 144 3,600 -197 Level Houston Center
Sun 10:27:08 AM 30.7289 -96.3919 320° Northwest 126 145 3,400 -290 Descending Houston Center
Sun 10:27:24 AM 30.7339 -96.3933 347° North 127 146 3,300 -385 Descending Houston Center
Sun 10:28:26 AM 30.7658 -96.4242 320° Northwest 127 146 2,900 -356 Descending Houston Center
Sun 10:29:05 AM 30.7814 -96.4419 316° Northwest 130 150 2,700 -295 Descending Houston Center
Sun 10:29:27 AM 30.7933 -96.4544 318° Northwest 131 151 2,600 -197 Descending Houston Center
Sun 10:30:06 AM 30.8072 -96.4756 307° West 133 153 2,500  Descending Houston Center
Sun 10:30:29 AM 30.8183 -96.4881 316° Northwest 132 152 2,600 261 Climbing Houston Center

Login

Don't have an account? Register now (free) for customized features, flight alerts, and more!